Costa Luminosa — ICGU — position and weather

sailwx.info

Track history (hours):
 
Tides and Currents Weather Stations Pressure Air Temp Water Temp Dewpoint Dewpoint Depression Visibility Wind Speed Wind Dir Waves Ship Positions

Costa Luminosa

Last reported at 2019-Nov-20 08:30 UTC. Time now 2019-Nov-20 09:13 UTC.
Position N 28°28' W 016°14'.

Length 294 m; draft 8.1 m.

Type: Passenger vessel. MMSI: 247257900.

Date/timePositionNaut miles runAvg speedWind from/ knotsBaromVisibWave heightAir tempDewpointWater temp
2019-Nov-20 08:30N 28°28' W 016°14'1 0.6
2019-Nov-20 07:30N 28°29' W 016°14'7 6.8
2019-Nov-20 06:30N 28°27' W 016°07'18 9.2
2019-Nov-20 04:30N 28°35' W 015°48'1010.4
2019-Nov-20 03:30N 28°42' W 015°40'10 9.8
2019-Nov-20 02:30N 28°43' W 015°28'3411.3
2019-Nov-19 23:30N 28°46' W 014°50'6912.9
2019-Nov-19 18:09N 28°57' W 013°32'1 4.6
2019-Nov-19 17:54N 28°58' W 013°32'0 0.1
2019-Nov-19 16:30N 28°58' W 013°32'0 0.0
2019-Nov-19 14:18N 28°58' W 013°32'0 0.0
2019-Nov-19 13:29N 28°58' W 013°32'0 0.0
2019-Nov-19 10:37N 28°58' W 013°32'59716.3
2019-Nov-17 21:59N 36°04' W 005°16'3316.5
2019-Nov-17 20:00N 36°22' W 004°42'141 6.3
2019-Nov-16 21:30N 36°42' W 001°48'7718.4
2019-Nov-16 17:20N 37°33' W 000°36'918.5
2019-Nov-16 16:50N 37°40' W 000°29'1518.3
2019-Nov-16 15:59N 37°54' W 000°19'23718.7
2019-Nov-16 03:20N 41°03' E 002°46'819.0
2019-Nov-16 02:55N 41°09' E 002°54'818.9
2019-Nov-16 02:30N 41°14' E 003°01'194 7.2
2019-Nov-14 23:44N 42°58' E 006°42'1814.6
2019-Nov-14 22:30N 43°06' E 007°03'4715.7
2019-Nov-14 19:30N 43°35' E 007°54'816.4
2019-Nov-14 19:00N 43°42' E 008°01'917.2
2019-Nov-14 18:30N 43°49' E 008°08'917.9
2019-Nov-14 18:00N 43°56' E 008°15'1019.7
2019-Nov-14 17:30N 44°04' E 008°23'15 2.1
2019-Nov-14 10:27N 44°19' E 008°29'0 0.0
2019-Nov-14 06:30N 44°19' E 008°29'3313.2
2019-Nov-14 04:01N 43°52' E 008°57'3718.5
2019-Nov-14 02:00N 43°21' E 009°25'4618.6
2019-Nov-13 23:30N 42°38' E 009°48'3316.1
2019-Nov-13 21:27N 42°13' E 010°18'284 8.4
2019-Nov-12 11:33N 38°60' E 014°51'113.7
2019-Nov-12 11:29N 38°59' E 014°52'2013.8
2019-Nov-12 10:00N 38°44' E 015°09'1414.0
2019-Nov-12 09:00N 38°34' E 015°22'2315.4
2019-Nov-12 07:29N 38°17' E 015°42'2113.8
2019-Nov-12 06:00N 37°57' E 015°35'6714.9
2019-Nov-12 01:30N 38°09' E 016°59'  
Track history (hours):
 
Tides and Currents Weather Stations Pressure Air Temp Water Temp Dewpoint Dewpoint Depression Visibility Wind Speed Wind Dir Waves Ship Positions

Costa Luminosa

Last reported at 2019-Nov-20 08:30 UTC. Time now 2019-Nov-20 09:13 UTC.
Position N 28°28' W 016°14'.

Length 294 m; draft 8.1 m.

Type: Passenger vessel. MMSI: 247257900.

Date/timePositionNaut miles runAvg speedWind from/ knotsBaromVisibWave heightAir tempDewpointWater temp
2019-Nov-20 08:30N 28°28' W 016°14'1 0.6
2019-Nov-20 07:30N 28°29' W 016°14'7 6.8
2019-Nov-20 06:30N 28°27' W 016°07'18 9.2
2019-Nov-20 04:30N 28°35' W 015°48'1010.4
2019-Nov-20 03:30N 28°42' W 015°40'10 9.8
2019-Nov-20 02:30N 28°43' W 015°28'3411.3
2019-Nov-19 23:30N 28°46' W 014°50'6912.9
2019-Nov-19 18:09N 28°57' W 013°32'1 4.6
2019-Nov-19 17:54N 28°58' W 013°32'0 0.1
2019-Nov-19 16:30N 28°58' W 013°32'0 0.0
2019-Nov-19 14:18N 28°58' W 013°32'0 0.0
2019-Nov-19 13:29N 28°58' W 013°32'0 0.0
2019-Nov-19 10:37N 28°58' W 013°32'59716.3
2019-Nov-17 21:59N 36°04' W 005°16'3316.5
2019-Nov-17 20:00N 36°22' W 004°42'141 6.3
2019-Nov-16 21:30N 36°42' W 001°48'7718.4
2019-Nov-16 17:20N 37°33' W 000°36'918.5
2019-Nov-16 16:50N 37°40' W 000°29'1518.3
2019-Nov-16 15:59N 37°54' W 000°19'23718.7
2019-Nov-16 03:20N 41°03' E 002°46'819.0
2019-Nov-16 02:55N 41°09' E 002°54'818.9
2019-Nov-16 02:30N 41°14' E 003°01'194 7.2
2019-Nov-14 23:44N 42°58' E 006°42'1814.6
2019-Nov-14 22:30N 43°06' E 007°03'4715.7
2019-Nov-14 19:30N 43°35' E 007°54'816.4
2019-Nov-14 19:00N 43°42' E 008°01'917.2
2019-Nov-14 18:30N 43°49' E 008°08'917.9
2019-Nov-14 18:00N 43°56' E 008°15'1019.7
2019-Nov-14 17:30N 44°04' E 008°23'15 2.1
2019-Nov-14 10:27N 44°19' E 008°29'0 0.0
2019-Nov-14 06:30N 44°19' E 008°29'3313.2
2019-Nov-14 04:01N 43°52' E 008°57'3718.5
2019-Nov-14 02:00N 43°21' E 009°25'4618.6
2019-Nov-13 23:30N 42°38' E 009°48'3316.1
2019-Nov-13 21:27N 42°13' E 010°18'284 8.4
2019-Nov-12 11:33N 38°60' E 014°51'113.7
2019-Nov-12 11:29N 38°59' E 014°52'2013.8
2019-Nov-12 10:00N 38°44' E 015°09'1414.0
2019-Nov-12 09:00N 38°34' E 015°22'2315.4
2019-Nov-12 07:29N 38°17' E 015°42'2113.8
2019-Nov-12 06:00N 37°57' E 015°35'6714.9
2019-Nov-12 01:30N 38°09' E 016°59'  

Dump ship's entire track history